createdAt,value
2023-04-30T00:00:37.722Z,12.28
2023-04-30T00:01:09.897Z,12.26
2023-04-30T00:01:42.157Z,12.26
2023-04-30T00:02:17.037Z,12.26
2023-04-30T00:02:49.369Z,12.24
2023-04-30T00:03:21.697Z,12.24
2023-04-30T00:03:57.134Z,12.23
2023-04-30T00:04:29.432Z,12.22
2023-04-30T00:05:01.653Z,12.23
2023-04-30T00:05:36.592Z,12.21
2023-04-30T00:06:08.851Z,12.19
2023-04-30T00:06:41.231Z,12.21
2023-04-30T00:07:16.153Z,12.19
2023-04-30T00:07:48.357Z,12.18
2023-04-30T00:08:20.647Z,12.18
2023-04-30T00:08:55.480Z,12.17
2023-04-30T00:09:28.062Z,12.15
2023-04-30T00:10:00.287Z,12.16
2023-04-30T00:10:35.212Z,12.15
2023-04-30T00:11:07.535Z,12.13
2023-04-30T00:11:39.734Z,12.13
2023-04-30T00:12:14.532Z,12.10
2023-04-30T00:12:46.826Z,12.11
2023-04-30T00:13:19.382Z,12.10
2023-04-30T00:13:54.221Z,12.10
2023-04-30T00:14:26.459Z,12.09
2023-04-30T00:14:58.686Z,12.08
2023-04-30T00:15:33.439Z,12.07
2023-04-30T00:16:08.536Z,12.07
2023-04-30T00:16:41.354Z,12.06
2023-04-30T00:17:16.742Z,12.06
2023-04-30T00:17:48.974Z,12.03
2023-04-30T00:18:21.808Z,12.02
2023-04-30T00:18:56.558Z,12.02
2023-04-30T00:19:28.759Z,12.02
2023-04-30T00:20:01.414Z,12.02
2023-04-30T00:20:36.352Z,12.02
2023-04-30T00:21:08.554Z,12.02
2023-04-30T00:21:41.325Z,12.02
2023-04-30T00:22:16.195Z,11.99
2023-04-30T00:22:48.420Z,11.99
2023-04-30T00:23:23.261Z,11.96
2023-04-30T00:23:55.470Z,11.94
2023-04-30T00:24:27.669Z,11.93
2023-04-30T00:25:02.496Z,11.92
2023-04-30T00:25:35.644Z,11.89
2023-04-30T00:26:07.885Z,11.88
2023-04-30T00:26:44.220Z,11.86
2023-04-30T00:27:16.501Z,11.85
2023-04-30T00:27:51.323Z,11.84
2023-04-30T00:28:23.655Z,11.83
2023-04-30T00:28:55.898Z,11.82
2023-04-30T00:29:30.678Z,11.83
2023-04-30T00:30:03.894Z,11.83
2023-04-30T00:30:36.189Z,11.81
2023-04-30T00:31:13.568Z,11.81
2023-04-30T00:31:46.007Z,11.79
2023-04-30T00:32:18.308Z,11.79
2023-04-30T00:32:53.161Z,11.81
2023-04-30T00:33:25.502Z,11.80
2023-04-30T00:33:57.905Z,11.81
2023-04-30T00:34:32.800Z,11.81
2023-04-30T00:35:05.978Z,11.80
2023-04-30T00:35:38.450Z,11.79
2023-04-30T00:36:13.503Z,11.79
2023-04-30T00:36:45.779Z,11.79
2023-04-30T00:37:18.018Z,11.79
2023-04-30T00:37:52.789Z,11.79
2023-04-30T00:38:24.936Z,11.77
2023-04-30T00:38:57.287Z,11.76
2023-04-30T00:39:32.059Z,11.76
2023-04-30T00:40:05.267Z,11.74
2023-04-30T00:40:38.487Z,11.72
2023-04-30T00:41:13.450Z,11.72
2023-04-30T00:41:46.285Z,11.71
2023-04-30T00:42:18.471Z,11.69
2023-04-30T00:42:55.904Z,11.69
2023-04-30T00:43:28.306Z,11.67
2023-04-30T00:44:02.352Z,11.68
2023-04-30T00:44:37.303Z,11.67
2023-04-30T00:45:10.592Z,11.67
2023-04-30T00:45:42.954Z,11.66
2023-04-30T00:46:20.723Z,11.68
2023-04-30T00:46:52.957Z,11.66
2023-04-30T00:47:28.002Z,11.67
2023-04-30T00:48:00.830Z,11.66
2023-04-30T00:48:33.088Z,11.66
2023-04-30T00:49:08.094Z,11.66
2023-04-30T00:49:40.291Z,11.66
2023-04-30T00:50:16.183Z,11.65
2023-04-30T00:50:51.542Z,11.65
2023-04-30T00:51:24.513Z,11.64
2023-04-30T00:51:56.766Z,11.63
2023-04-30T00:52:32.339Z,11.63
2023-04-30T00:53:05.053Z,11.61
2023-04-30T00:53:38.634Z,11.61
2023-04-30T00:54:14.175Z,11.61
2023-04-30T00:54:46.393Z,11.59
2023-04-30T00:55:19.076Z,11.58
2023-04-30T00:55:54.643Z,11.58
2023-04-30T00:56:27.055Z,11.57
2023-04-30T00:56:59.542Z,11.55
2023-04-30T00:57:34.852Z,11.57
2023-04-30T00:58:08.225Z,11.57
2023-04-30T00:58:41.626Z,11.55
2023-04-30T00:59:16.742Z,11.56
2023-04-30T00:59:49.339Z,11.55
2023-04-30T01:00:22.383Z,11.57
2023-04-30T01:00:57.654Z,11.56
2023-04-30T01:01:33.266Z,11.55
2023-04-30T01:02:08.156Z,11.55
2023-04-30T01:02:41.081Z,11.54
2023-04-30T01:03:14.375Z,11.54
2023-04-30T01:03:47.065Z,11.57
2023-04-30T01:04:22.060Z,11.53
2023-04-30T01:04:55.449Z,11.53
2023-04-30T01:05:27.701Z,11.52
2023-04-30T01:06:02.684Z,11.52
2023-04-30T01:06:35.057Z,11.51
2023-04-30T01:07:07.941Z,11.50
2023-04-30T01:07:46.432Z,11.49
2023-04-30T01:08:18.780Z,11.47
2023-04-30T01:08:51.378Z,11.48
2023-04-30T01:09:26.587Z,11.50
2023-04-30T01:09:59.054Z,11.48
2023-04-30T01:10:41.237Z,11.48
2023-04-30T01:11:24.458Z,11.45
2023-04-30T01:12:06.536Z,11.44
2023-04-30T01:12:49.969Z,11.41
2023-04-30T01:13:29.216Z,11.39
2023-04-30T01:14:08.540Z,11.37
2023-04-30T01:14:56.190Z,11.36
2023-04-30T01:15:36.584Z,11.33
2023-04-30T01:16:12.269Z,11.25
2023-04-30T01:16:55.627Z,11.27
2023-04-30T01:17:34.346Z,11.27
2023-04-30T01:18:14.857Z,11.28
2023-04-30T01:18:52.226Z,11.27
2023-04-30T01:19:49.069Z,11.26
2023-04-30T01:20:21.657Z,11.22
2023-04-30T01:20:56.648Z,11.23
2023-04-30T01:21:33.882Z,11.25
2023-04-30T01:22:10.400Z,11.23
2023-04-30T01:22:51.005Z,11.22
2023-04-30T01:23:37.595Z,11.20
2023-04-30T01:24:32.644Z,11.16
2023-04-30T01:25:21.692Z,11.14
2023-04-30T01:26:13.883Z,11.11
2023-04-30T01:26:59.730Z,11.11
2023-04-30T01:27:58.974Z,11.09
2023-04-30T01:28:36.644Z,11.09
2023-04-30T01:29:10.705Z,11.10
2023-04-30T01:29:45.705Z,11.12
2023-04-30T01:30:19.393Z,11.13
2023-04-30T01:30:54.570Z,11.14
2023-04-30T01:31:29.141Z,11.15
2023-04-30T01:32:02.927Z,11.15
2023-04-30T01:32:37.728Z,11.15
2023-04-30T01:33:10.087Z,11.15
2023-04-30T01:33:45.126Z,11.16
2023-04-30T01:34:17.415Z,11.15
2023-04-30T01:34:49.636Z,11.15
2023-04-30T01:35:35.047Z,11.16
2023-04-30T01:36:21.093Z,11.13
2023-04-30T01:37:08.823Z,11.10
2023-04-30T01:37:52.511Z,11.09
2023-04-30T01:38:37.695Z,11.06
2023-04-30T01:39:25.925Z,11.04
2023-04-30T01:40:10.159Z,11.01
2023-04-30T01:40:48.348Z,10.99
2023-04-30T01:41:32.806Z,10.99
2023-04-30T01:42:12.326Z,10.99
2023-04-30T01:42:55.945Z,10.96
2023-04-30T01:43:40.406Z,10.94
2023-04-30T01:44:27.664Z,10.93
2023-04-30T01:45:19.944Z,10.90
2023-04-30T01:46:01.874Z,10.87
2023-04-30T01:46:36.808Z,10.88
2023-04-30T01:47:21.761Z,10.89
2023-04-30T01:48:03.606Z,10.87
2023-04-30T01:48:46.593Z,10.87
2023-04-30T01:49:26.078Z,10.85
2023-04-30T01:50:06.162Z,10.84
2023-04-30T01:50:47.004Z,10.84
2023-04-30T01:51:26.176Z,10.82
2023-04-30T01:52:04.050Z,10.82
2023-04-30T01:52:44.900Z,10.80
2023-04-30T01:53:22.182Z,10.80
2023-04-30T01:53:57.547Z,10.79
2023-04-30T01:54:38.093Z,10.80
2023-04-30T01:55:14.801Z,10.77
2023-04-30T01:55:51.336Z,10.77
2023-04-30T01:56:31.181Z,10.76
2023-04-30T01:57:07.658Z,10.75
2023-04-30T01:57:44.650Z,10.75
2023-04-30T01:58:20.097Z,10.74
2023-04-30T01:58:55.184Z,10.75
2023-04-30T01:59:27.489Z,10.73
2023-04-30T02:00:02.469Z,10.74
2023-04-30T02:00:34.691Z,10.73
2023-04-30T02:01:06.980Z,10.75
2023-04-30T02:01:41.966Z,10.72
2023-04-30T02:02:14.404Z,10.74
2023-04-30T02:02:46.780Z,10.73
2023-04-30T02:03:21.857Z,10.74
2023-04-30T02:03:54.254Z,10.72
2023-04-30T02:04:26.608Z,10.72
2023-04-30T02:05:01.486Z,10.71
2023-04-30T02:05:34.228Z,10.69
2023-04-30T02:06:06.698Z,10.68
2023-04-30T02:06:41.752Z,10.67
2023-04-30T02:07:27.733Z,10.65
2023-04-30T02:08:02.634Z,10.61
2023-04-30T02:08:34.955Z,10.62
2023-04-30T02:09:07.301Z,10.61
2023-04-30T02:09:42.136Z,10.63
2023-04-30T02:10:15.060Z,10.62
2023-04-30T02:10:47.464Z,10.63
2023-04-30T02:11:24.414Z,10.62
2023-04-30T02:11:57.998Z,10.62
2023-04-30T02:12:30.435Z,10.62
2023-04-30T02:13:05.319Z,10.63
2023-04-30T02:13:37.497Z,10.62
2023-04-30T02:14:12.528Z,10.62
2023-04-30T02:14:47.317Z,10.62
2023-04-30T02:15:19.951Z,10.62
2023-04-30T02:15:52.500Z,10.62
2023-04-30T02:16:27.363Z,10.61
2023-04-30T02:16:59.682Z,10.58
2023-04-30T02:17:32.338Z,10.59
2023-04-30T02:18:07.374Z,10.58
2023-04-30T02:18:39.598Z,10.57
2023-04-30T02:19:12.582Z,10.57
2023-04-30T02:19:47.461Z,10.56
2023-04-30T02:20:19.883Z,10.55
2023-04-30T02:20:52.056Z,10.55
2023-04-30T02:21:27.496Z,10.55
2023-04-30T02:21:59.821Z,10.54
2023-04-30T02:22:32.080Z,10.55
2023-04-30T02:23:06.866Z,10.55
2023-04-30T02:23:39.051Z,10.54
2023-04-30T02:24:11.261Z,10.55
2023-04-30T02:24:43.599Z,10.55
2023-04-30T02:25:18.737Z,10.54
2023-04-30T02:25:50.931Z,10.53
2023-04-30T02:26:23.114Z,10.53
2023-04-30T02:26:57.882Z,10.53
2023-04-30T02:27:32.067Z,10.51
2023-04-30T02:28:04.977Z,10.50
2023-04-30T02:28:39.752Z,10.51
2023-04-30T02:29:14.617Z,10.49
2023-04-30T02:29:47.233Z,10.48
2023-04-30T02:30:22.723Z,10.49
2023-04-30T02:30:55.320Z,10.47
2023-04-30T02:31:27.604Z,10.46
2023-04-30T02:32:00.387Z,10.46
2023-04-30T02:32:35.402Z,10.47
2023-04-30T02:33:07.750Z,10.45
2023-04-30T02:33:40.143Z,10.46
2023-04-30T02:34:15.030Z,10.46
2023-04-30T02:34:47.233Z,10.45
2023-04-30T02:35:19.394Z,10.45
2023-04-30T02:35:55.348Z,10.44
2023-04-30T02:36:27.729Z,10.43
2023-04-30T02:37:00.022Z,10.43
2023-04-30T02:37:34.810Z,10.43
2023-04-30T02:38:07.133Z,10.42
2023-04-30T02:38:39.396Z,10.44
2023-04-30T02:39:14.228Z,10.41
2023-04-30T02:39:46.769Z,10.41
2023-04-30T02:40:18.984Z,10.41
2023-04-30T02:40:53.829Z,10.39
2023-04-30T02:41:26.948Z,10.40
2023-04-30T02:41:59.467Z,10.39
2023-04-30T02:42:34.225Z,10.39
2023-04-30T02:43:06.668Z,10.38
2023-04-30T02:43:38.910Z,10.37
2023-04-30T02:44:14.459Z,10.38
2023-04-30T02:44:49.332Z,10.35
2023-04-30T02:45:21.739Z,10.34
2023-04-30T02:45:56.556Z,10.33
2023-04-30T02:46:28.757Z,10.33
2023-04-30T02:47:01.755Z,10.32
2023-04-30T02:47:36.727Z,10.32
2023-04-30T02:48:09.020Z,10.31
2023-04-30T02:48:41.611Z,10.31
2023-04-30T02:49:16.500Z,10.32
2023-04-30T02:49:48.751Z,10.30
2023-04-30T02:50:21.122Z,10.30
2023-04-30T02:50:55.932Z,10.29
2023-04-30T02:51:28.530Z,10.29
2023-04-30T02:52:01.153Z,10.29
2023-04-30T02:52:35.924Z,10.28
2023-04-30T02:53:08.198Z,10.27
2023-04-30T02:53:40.377Z,10.28
2023-04-30T02:54:15.170Z,10.27
2023-04-30T02:54:47.650Z,10.28
2023-04-30T02:55:19.845Z,10.25
2023-04-30T02:55:54.789Z,10.27
2023-04-30T02:56:27.003Z,10.27
2023-04-30T02:56:59.218Z,10.26
2023-04-30T02:57:34.057Z,10.26
2023-04-30T02:58:06.568Z,10.24
2023-04-30T02:58:38.843Z,10.23
2023-04-30T02:59:13.777Z,10.24
2023-04-30T02:59:49.019Z,10.22
2023-04-30T03:00:21.712Z,10.22
2023-04-30T03:00:56.586Z,10.21
2023-04-30T03:01:28.952Z,10.20
2023-04-30T03:02:01.167Z,10.22
2023-04-30T03:02:36.066Z,10.22
2023-04-30T03:03:08.405Z,10.22
2023-04-30T03:03:40.712Z,10.22
2023-04-30T03:04:15.718Z,10.23
2023-04-30T03:04:48.080Z,10.23
2023-04-30T03:05:20.626Z,10.24
2023-04-30T03:05:56.976Z,10.23
2023-04-30T03:06:29.299Z,10.22
2023-04-30T03:07:01.693Z,10.22
2023-04-30T03:07:36.676Z,10.23
2023-04-30T03:08:08.855Z,10.23
2023-04-30T03:08:41.039Z,10.23
2023-04-30T03:09:16.042Z,10.24
2023-04-30T03:09:48.319Z,10.23
2023-04-30T03:10:20.670Z,10.24
2023-04-30T03:10:55.559Z,10.24
2023-04-30T03:11:27.844Z,10.24
2023-04-30T03:12:00.006Z,10.25
2023-04-30T03:12:34.840Z,10.27
2023-04-30T03:13:07.343Z,10.26
2023-04-30T03:13:39.883Z,10.27
2023-04-30T03:14:12.107Z,10.27
2023-04-30T03:14:46.888Z,10.26
2023-04-30T03:15:21.975Z,10.27
2023-04-30T03:15:58.647Z,10.27
2023-04-30T03:16:33.898Z,10.26
2023-04-30T03:17:06.170Z,10.24
2023-04-30T03:17:38.693Z,10.24
2023-04-30T03:18:13.851Z,10.25
2023-04-30T03:18:46.236Z,10.25
2023-04-30T03:19:22.261Z,10.24
2023-04-30T03:19:57.295Z,10.23
2023-04-30T03:20:29.814Z,10.24
2023-04-30T03:21:02.135Z,10.23
2023-04-30T03:21:36.964Z,10.24
2023-04-30T03:22:09.244Z,10.23
2023-04-30T03:22:42.037Z,10.24
2023-04-30T03:23:18.029Z,10.25
2023-04-30T03:23:50.318Z,10.25
2023-04-30T03:24:22.494Z,10.26
2023-04-30T03:24:57.242Z,10.27
2023-04-30T03:25:29.585Z,10.27
2023-04-30T03:26:01.887Z,10.26
2023-04-30T03:26:36.826Z,10.27
2023-04-30T03:27:09.208Z,10.26
2023-04-30T03:27:41.486Z,10.25
2023-04-30T03:28:16.370Z,10.27
2023-04-30T03:28:48.562Z,10.25
2023-04-30T03:29:20.902Z,10.26
2023-04-30T03:29:56.074Z,10.27
2023-04-30T03:30:31.221Z,10.27
2023-04-30T03:31:05.595Z,10.27
2023-04-30T03:31:40.740Z,10.27
2023-04-30T03:32:13.003Z,10.27
2023-04-30T03:32:45.242Z,10.27
2023-04-30T03:33:20.132Z,10.28
2023-04-30T03:33:52.509Z,10.28
2023-04-30T03:34:24.718Z,10.30
2023-04-30T03:34:59.560Z,10.28
2023-04-30T03:35:32.556Z,10.29
2023-04-30T03:36:05.323Z,10.30
2023-04-30T03:36:40.172Z,10.30
2023-04-30T03:37:12.674Z,10.29
2023-04-30T03:37:44.927Z,10.30
2023-04-30T03:38:17.099Z,10.30
2023-04-30T03:38:51.966Z,10.31
2023-04-30T03:39:24.159Z,10.30
2023-04-30T03:39:56.505Z,10.26
2023-04-30T03:40:28.850Z,10.29
2023-04-30T03:41:03.951Z,10.28
2023-04-30T03:41:36.344Z,10.25
2023-04-30T03:42:08.589Z,10.24
2023-04-30T03:42:43.350Z,10.24
2023-04-30T03:43:15.997Z,10.22
2023-04-30T03:43:48.245Z,10.24
2023-04-30T03:44:23.481Z,10.23
2023-04-30T03:44:55.823Z,10.22
2023-04-30T03:45:31.453Z,10.22
2023-04-30T03:46:06.570Z,10.22
2023-04-30T03:46:38.888Z,10.20
2023-04-30T03:47:11.171Z,10.21
2023-04-30T03:47:46.183Z,10.19
2023-04-30T03:48:18.747Z,10.18
2023-04-30T03:48:51.373Z,10.19
2023-04-30T03:49:26.149Z,10.21
2023-04-30T03:49:58.389Z,10.20
2023-04-30T03:50:31.127Z,10.22
2023-04-30T03:51:05.949Z,10.22
2023-04-30T03:51:42.034Z,10.22
2023-04-30T03:52:14.436Z,10.21
2023-04-30T03:52:49.485Z,10.23
2023-04-30T03:53:22.109Z,10.24
2023-04-30T03:53:54.784Z,10.24
2023-04-30T03:54:29.821Z,10.25
2023-04-30T03:55:01.988Z,10.26
2023-04-30T03:55:34.927Z,10.28
2023-04-30T03:56:10.501Z,10.30
2023-04-30T03:56:42.934Z,10.28
2023-04-30T03:57:15.567Z,10.29
2023-04-30T03:57:50.389Z,10.30
2023-04-30T03:58:23.060Z,10.30
2023-04-30T03:58:55.427Z,10.31
2023-04-30T03:59:30.313Z,10.30
2023-04-30T04:00:04.232Z,10.30
2023-04-30T04:00:48.355Z,10.28
2023-04-30T04:01:23.148Z,10.27
2023-04-30T04:01:56.007Z,10.27
2023-04-30T04:02:28.389Z,10.29
2023-04-30T04:03:03.536Z,10.29
2023-04-30T04:03:36.273Z,10.28
2023-04-30T04:04:09.495Z,10.29
2023-04-30T04:04:44.990Z,10.28
2023-04-30T04:05:17.377Z,10.27
2023-04-30T04:05:50.942Z,10.25
2023-04-30T04:06:27.078Z,10.28
2023-04-30T04:06:59.361Z,10.27
2023-04-30T04:07:31.664Z,10.27
2023-04-30T04:08:06.618Z,10.28
2023-04-30T04:08:39.022Z,10.29
2023-04-30T04:09:11.736Z,10.30
2023-04-30T04:09:50.221Z,10.28
2023-04-30T04:10:22.408Z,10.27
2023-04-30T04:10:54.678Z,10.28
2023-04-30T04:11:27.018Z,10.29
2023-04-30T04:12:02.923Z,10.27
2023-04-30T04:12:35.335Z,10.26
2023-04-30T04:13:07.727Z,10.27
2023-04-30T04:13:43.088Z,10.26
2023-04-30T04:14:15.552Z,10.26
2023-04-30T04:14:47.986Z,10.25
2023-04-30T04:15:22.828Z,10.26
2023-04-30T04:15:57.679Z,10.26
2023-04-30T04:16:29.924Z,10.25
2023-04-30T04:17:05.857Z,10.27
2023-04-30T04:17:39.248Z,10.25
2023-04-30T04:18:11.673Z,10.26
2023-04-30T04:18:47.236Z,10.25
2023-04-30T04:19:19.458Z,10.25
2023-04-30T04:19:52.370Z,10.27
2023-04-30T04:20:27.602Z,10.28
2023-04-30T04:21:01.583Z,10.30
2023-04-30T04:21:35.209Z,10.29
2023-04-30T04:22:14.005Z,10.29
2023-04-30T04:22:46.273Z,10.31
2023-04-30T04:23:18.487Z,10.32
2023-04-30T04:23:53.541Z,10.32
2023-04-30T04:24:26.030Z,10.32
2023-04-30T04:24:58.627Z,10.33
2023-04-30T04:25:33.699Z,10.34
2023-04-30T04:26:06.061Z,10.33
2023-04-30T04:26:41.616Z,10.33
2023-04-30T04:27:14.592Z,10.33
2023-04-30T04:27:47.232Z,10.36
2023-04-30T04:28:22.312Z,10.35
2023-04-30T04:28:55.223Z,10.36
2023-04-30T04:29:27.703Z,10.37
2023-04-30T04:29:59.870Z,10.38
2023-04-30T04:30:34.769Z,10.39
2023-04-30T04:31:09.828Z,10.40
2023-04-30T04:31:43.009Z,10.40
2023-04-30T04:32:19.008Z,10.41
2023-04-30T04:32:52.094Z,10.42
2023-04-30T04:33:24.389Z,10.43
2023-04-30T04:34:00.493Z,10.45
2023-04-30T04:34:32.905Z,10.45
2023-04-30T04:35:09.157Z,10.47
2023-04-30T04:35:41.563Z,10.47
2023-04-30T04:36:13.760Z,10.49
2023-04-30T04:36:48.853Z,10.49
2023-04-30T04:37:21.126Z,10.49
2023-04-30T04:37:53.303Z,10.50
2023-04-30T04:38:28.835Z,10.49
2023-04-30T04:39:02.422Z,10.49
2023-04-30T04:39:37.601Z,10.51
2023-04-30T04:40:11.005Z,10.52
2023-04-30T04:40:51.639Z,10.53
2023-04-30T04:41:27.115Z,10.53
2023-04-30T04:41:59.554Z,10.55
2023-04-30T04:42:32.637Z,10.56
2023-04-30T04:43:07.609Z,10.57
2023-04-30T04:43:39.839Z,10.58
2023-04-30T04:44:12.013Z,10.59
2023-04-30T04:44:47.299Z,10.62
2023-04-30T04:45:20.779Z,10.63
2023-04-30T04:45:54.782Z,10.63
2023-04-30T04:46:34.595Z,10.64
2023-04-30T04:47:08.376Z,10.65
2023-04-30T04:47:40.660Z,10.67
2023-04-30T04:48:16.178Z,10.69
2023-04-30T04:48:48.381Z,10.72
2023-04-30T04:49:20.852Z,10.74
2023-04-30T04:49:56.031Z,10.78
2023-04-30T04:50:28.380Z,10.79
2023-04-30T04:51:01.002Z,10.82
2023-04-30T04:51:37.230Z,10.83
2023-04-30T04:52:09.425Z,10.86
2023-04-30T04:52:41.959Z,10.88
2023-04-30T04:53:16.770Z,10.89
2023-04-30T04:53:49.354Z,10.92
2023-04-30T04:54:21.718Z,10.92
2023-04-30T04:54:56.881Z,10.93
2023-04-30T04:55:29.040Z,10.93
2023-04-30T04:56:01.345Z,10.94
2023-04-30T04:56:36.319Z,10.96
2023-04-30T04:57:08.533Z,10.96
2023-04-30T04:57:42.195Z,10.96
2023-04-30T04:58:17.195Z,10.97
2023-04-30T04:58:50.792Z,10.96
2023-04-30T04:59:23.174Z,10.98
2023-04-30T04:59:58.261Z,10.99
2023-04-30T05:00:30.531Z,11.00
2023-04-30T05:01:03.094Z,11.04
2023-04-30T05:01:40.657Z,11.06
2023-04-30T05:02:13.022Z,11.08
2023-04-30T05:02:45.893Z,11.10
2023-04-30T05:03:21.243Z,11.14
2023-04-30T05:03:55.258Z,11.15
2023-04-30T05:04:28.180Z,11.18
2023-04-30T05:05:03.351Z,11.20
2023-04-30T05:05:35.648Z,11.22
2023-04-30T05:06:08.126Z,11.25
2023-04-30T05:06:43.328Z,11.28
2023-04-30T05:07:15.606Z,11.31
2023-04-30T05:07:47.897Z,11.33
2023-04-30T05:08:22.863Z,11.34
2023-04-30T05:08:55.064Z,11.35
2023-04-30T05:09:27.280Z,11.38
2023-04-30T05:10:02.043Z,11.40
2023-04-30T05:10:35.082Z,11.41
2023-04-30T05:11:07.234Z,11.41
2023-04-30T05:11:42.028Z,11.43
2023-04-30T05:12:14.677Z,11.44
2023-04-30T05:12:46.885Z,11.46
2023-04-30T05:13:21.728Z,11.49
2023-04-30T05:13:53.940Z,11.51
2023-04-30T05:14:26.432Z,11.53
2023-04-30T05:15:01.181Z,11.57
2023-04-30T05:15:33.381Z,11.59
2023-04-30T05:16:05.960Z,11.61
2023-04-30T05:16:43.422Z,11.65
2023-04-30T05:17:15.686Z,11.65
2023-04-30T05:17:47.908Z,11.68
2023-04-30T05:18:22.870Z,11.71
2023-04-30T05:18:55.152Z,11.73
2023-04-30T05:19:27.533Z,11.75
2023-04-30T05:20:02.302Z,11.76
2023-04-30T05:20:34.551Z,11.77
2023-04-30T05:21:06.956Z,11.79
2023-04-30T05:21:41.864Z,11.81
2023-04-30T05:22:14.480Z,11.82
2023-04-30T05:22:46.733Z,11.84
2023-04-30T05:23:21.757Z,11.84
2023-04-30T05:23:53.966Z,11.85
2023-04-30T05:24:26.282Z,11.85
2023-04-30T05:25:01.041Z,11.85
2023-04-30T05:25:33.290Z,11.86
2023-04-30T05:26:08.185Z,11.89
2023-04-30T05:26:40.366Z,11.90
2023-04-30T05:27:12.682Z,11.92
2023-04-30T05:27:47.493Z,11.94
2023-04-30T05:28:19.990Z,11.95
2023-04-30T05:28:52.806Z,11.97
2023-04-30T05:29:27.619Z,11.98
2023-04-30T05:30:00.013Z,12.00
2023-04-30T05:30:32.581Z,12.01
2023-04-30T05:31:05.316Z,12.03
2023-04-30T05:31:40.154Z,12.04
2023-04-30T05:32:15.045Z,12.06
2023-04-30T05:32:52.349Z,12.07
2023-04-30T05:33:24.677Z,12.07
2023-04-30T05:33:56.863Z,12.11
2023-04-30T05:34:31.611Z,12.14
2023-04-30T05:35:03.974Z,12.16
2023-04-30T05:35:36.404Z,12.18
2023-04-30T05:36:11.350Z,12.19
2023-04-30T05:36:44.387Z,12.22
2023-04-30T05:37:17.946Z,12.25
2023-04-30T05:37:52.785Z,12.27
2023-04-30T05:38:25.307Z,12.29
2023-04-30T05:39:00.094Z,12.33
2023-04-30T05:39:33.961Z,12.34
2023-04-30T05:40:10.330Z,12.38
2023-04-30T05:40:45.109Z,12.38
2023-04-30T05:41:17.340Z,12.38
2023-04-30T05:41:50.703Z,12.40
2023-04-30T05:42:27.642Z,12.41
2023-04-30T05:43:01.693Z,12.43
2023-04-30T05:43:34.246Z,12.45
2023-04-30T05:44:09.366Z,12.48
2023-04-30T05:44:41.753Z,12.48
2023-04-30T05:45:17.502Z,12.50
2023-04-30T05:45:54.464Z,12.51
2023-04-30T05:46:26.840Z,12.52
2023-04-30T05:46:59.281Z,12.56
2023-04-30T05:47:36.683Z,12.59
2023-04-30T05:48:08.922Z,12.60
2023-04-30T05:48:41.316Z,12.62
2023-04-30T05:49:13.552Z,12.64
2023-04-30T05:49:48.438Z,12.66
2023-04-30T05:50:20.750Z,12.67
2023-04-30T05:50:53.027Z,12.69
2023-04-30T05:51:28.106Z,12.72
2023-04-30T05:52:00.302Z,12.73
2023-04-30T05:52:35.173Z,12.74
2023-04-30T05:53:07.358Z,12.76
2023-04-30T05:53:39.562Z,12.78
2023-04-30T05:54:14.298Z,12.82
2023-04-30T05:54:50.106Z,12.81
2023-04-30T05:55:22.511Z,12.81
2023-04-30T05:55:57.424Z,12.81
2023-04-30T05:56:29.611Z,12.80
2023-04-30T05:57:02.288Z,12.80
2023-04-30T05:57:38.120Z,12.79
2023-04-30T05:58:10.515Z,12.78
2023-04-30T05:58:42.716Z,12.80
2023-04-30T05:59:17.496Z,12.83
2023-04-30T05:59:49.884Z,12.85
2023-04-30T06:00:22.311Z,12.85
2023-04-30T06:00:57.230Z,12.84
2023-04-30T06:01:29.584Z,12.84
2023-04-30T06:02:01.844Z,12.86
2023-04-30T06:02:39.356Z,12.87
2023-04-30T06:03:11.731Z,12.88
2023-04-30T06:03:44.155Z,12.88
2023-04-30T06:04:18.964Z,12.89
2023-04-30T06:04:51.245Z,12.90
2023-04-30T06:05:23.629Z,12.90
2023-04-30T06:05:58.542Z,12.89
2023-04-30T06:06:31.399Z,12.89
2023-04-30T06:07:03.775Z,12.90
2023-04-30T06:07:38.575Z,12.92
2023-04-30T06:08:10.816Z,12.92
2023-04-30T06:08:45.652Z,12.93
2023-04-30T06:09:20.649Z,12.96
2023-04-30T06:09:53.037Z,12.97
2023-04-30T06:10:25.770Z,12.98
2023-04-30T06:11:00.789Z,12.98
2023-04-30T06:11:32.987Z,12.98
2023-04-30T06:12:05.955Z,12.99
2023-04-30T06:12:41.129Z,12.99
2023-04-30T06:13:14.959Z,12.99
2023-04-30T06:13:48.294Z,13.00
2023-04-30T06:14:23.163Z,13.00
2023-04-30T06:14:55.668Z,13.01
2023-04-30T06:15:27.980Z,13.00
2023-04-30T06:16:02.854Z,13.02
2023-04-30T06:16:35.265Z,13.01
2023-04-30T06:17:07.512Z,13.02
2023-04-30T06:17:45.006Z,13.05
2023-04-30T06:18:17.287Z,13.05
2023-04-30T06:18:50.765Z,13.04
2023-04-30T06:19:26.418Z,13.06
2023-04-30T06:20:01.023Z,13.06
2023-04-30T06:20:36.007Z,13.08
2023-04-30T06:21:08.194Z,13.09
2023-04-30T06:21:40.603Z,13.08
2023-04-30T06:22:16.263Z,13.10
2023-04-30T06:22:48.467Z,13.12
2023-04-30T06:23:21.067Z,13.15
2023-04-30T06:23:56.097Z,13.17
2023-04-30T06:24:30.496Z,13.21
2023-04-30T06:25:05.279Z,13.23
2023-04-30T06:25:37.672Z,13.26
2023-04-30T06:26:09.954Z,13.28
2023-04-30T06:26:44.720Z,13.33
2023-04-30T06:27:16.897Z,13.36
2023-04-30T06:27:49.112Z,13.38
2023-04-30T06:28:23.857Z,13.40
2023-04-30T06:28:56.268Z,13.40
2023-04-30T06:29:28.625Z,13.42
2023-04-30T06:30:03.743Z,13.46
2023-04-30T06:30:36.919Z,13.48
2023-04-30T06:31:09.496Z,13.51
2023-04-30T06:31:44.355Z,13.53
2023-04-30T06:32:17.076Z,13.56
2023-04-30T06:32:51.940Z,13.58
2023-04-30T06:33:26.768Z,13.58
2023-04-30T06:33:58.927Z,13.59
2023-04-30T06:34:31.273Z,13.61
2023-04-30T06:35:06.118Z,13.64
2023-04-30T06:35:38.360Z,13.67
2023-04-30T06:36:10.597Z,13.69
2023-04-30T06:36:45.350Z,13.70
2023-04-30T06:37:17.592Z,13.68
2023-04-30T06:37:49.759Z,13.69
2023-04-30T06:38:24.530Z,13.71
2023-04-30T06:38:56.735Z,13.71
2023-04-30T06:39:28.940Z,13.72
2023-04-30T06:40:03.832Z,13.73
2023-04-30T06:40:36.305Z,13.73
2023-04-30T06:41:11.604Z,13.74
2023-04-30T06:41:44.194Z,13.75
2023-04-30T06:42:16.364Z,13.76
2023-04-30T06:42:51.478Z,13.76
2023-04-30T06:43:23.647Z,13.78
2023-04-30T06:43:55.793Z,13.78
2023-04-30T06:44:30.894Z,13.78
2023-04-30T06:45:04.672Z,13.78
2023-04-30T06:45:36.934Z,13.81
2023-04-30T06:46:11.926Z,13.84
2023-04-30T06:46:44.279Z,13.86
2023-04-30T06:47:16.531Z,13.86
2023-04-30T06:47:53.899Z,13.89
2023-04-30T06:48:26.339Z,13.90
2023-04-30T06:48:58.544Z,13.93
2023-04-30T06:49:33.318Z,13.93
2023-04-30T06:50:06.582Z,13.94
2023-04-30T06:50:45.056Z,13.95
2023-04-30T06:51:20.022Z,13.95
2023-04-30T06:51:52.200Z,13.93
2023-04-30T06:52:26.970Z,13.93
2023-04-30T06:52:59.136Z,13.93
2023-04-30T06:53:31.439Z,13.96
2023-04-30T06:54:06.420Z,13.98
2023-04-30T06:54:38.619Z,14.00
2023-04-30T06:55:11.625Z,14.02
2023-04-30T06:55:47.349Z,14.03
2023-04-30T06:56:22.173Z,14.03
2023-04-30T06:56:54.467Z,14.02
2023-04-30T06:57:29.432Z,14.03
2023-04-30T06:58:01.624Z,14.00
2023-04-30T06:58:36.398Z,14.00
2023-04-30T06:59:09.087Z,13.99
2023-04-30T06:59:41.316Z,14.00
2023-04-30T07:00:18.040Z,14.04
2023-04-30T07:00:50.407Z,14.07
2023-04-30T07:01:22.784Z,14.10
2023-04-30T07:01:57.587Z,14.11
2023-04-30T07:02:29.922Z,14.11
2023-04-30T07:03:07.434Z,14.13
2023-04-30T07:03:39.847Z,14.13
2023-04-30T07:04:12.243Z,14.14
2023-04-30T07:04:47.102Z,14.16
2023-04-30T07:05:19.444Z,14.17
2023-04-30T07:05:51.947Z,14.17
2023-04-30T07:06:26.849Z,14.16
2023-04-30T07:07:02.254Z,14.16
2023-04-30T07:07:37.002Z,14.16
2023-04-30T07:08:09.373Z,14.16
2023-04-30T07:08:44.231Z,14.16
2023-04-30T07:09:16.821Z,14.18
2023-04-30T07:09:50.302Z,14.18
2023-04-30T07:10:26.496Z,14.19
2023-04-30T07:10:58.958Z,14.21
2023-04-30T07:11:31.331Z,14.23
2023-04-30T07:12:04.170Z,14.27
2023-04-30T07:12:38.980Z,14.31
2023-04-30T07:13:11.438Z,14.33
2023-04-30T07:13:46.293Z,14.34
2023-04-30T07:14:18.470Z,14.37
2023-04-30T07:14:50.666Z,14.40
2023-04-30T07:15:25.538Z,14.40
2023-04-30T07:15:58.740Z,14.37
2023-04-30T07:16:33.096Z,14.36
2023-04-30T07:17:08.171Z,14.37
2023-04-30T07:17:42.058Z,14.38
2023-04-30T07:18:17.410Z,14.39
2023-04-30T07:18:52.678Z,14.37
2023-04-30T07:19:27.132Z,14.34
2023-04-30T07:19:59.330Z,14.36
2023-04-30T07:20:34.156Z,14.37
2023-04-30T07:21:06.661Z,14.39
2023-04-30T07:21:41.523Z,14.42